createdAt,value
2022-11-15T00:00:40.938Z,8.49
2022-11-15T00:03:28.670Z,8.29
2022-11-15T00:06:14.797Z,8.19
2022-11-15T00:09:01.354Z,8.16
2022-11-15T00:11:47.439Z,8.06
2022-11-15T00:14:33.267Z,7.89
2022-11-15T00:17:19.153Z,7.95
2022-11-15T00:20:05.444Z,8.04
2022-11-15T00:22:51.147Z,8.02
2022-11-15T00:25:36.970Z,7.96
2022-11-15T00:28:22.819Z,8.02
2022-11-15T00:31:12.958Z,8.16
2022-11-15T00:33:58.955Z,7.73
2022-11-15T00:36:44.732Z,7.79
2022-11-15T00:39:30.352Z,7.77
2022-11-15T00:42:16.168Z,7.75
2022-11-15T00:45:02.172Z,7.83
2022-11-15T00:47:48.285Z,7.83
2022-11-15T00:50:34.126Z,7.84
2022-11-15T00:53:19.699Z,8.02
2022-11-15T00:56:05.699Z,8.09
2022-11-15T00:58:51.888Z,7.95
2022-11-15T01:01:37.717Z,8.17
2022-11-15T01:04:23.590Z,7.95
2022-11-15T01:07:09.349Z,8.01
2022-11-15T01:09:55.789Z,8.06
2022-11-15T01:12:41.545Z,8.03
2022-11-15T01:15:27.496Z,7.96
2022-11-15T01:18:22.904Z,7.96
2022-11-15T01:21:15.163Z,8.02
2022-11-15T01:24:00.912Z,7.95
2022-11-15T01:26:46.822Z,7.80
2022-11-15T01:29:32.693Z,8.01
2022-11-15T01:32:18.879Z,7.77
2022-11-15T01:35:05.419Z,7.65
2022-11-15T01:37:51.476Z,7.26
2022-11-15T01:40:37.273Z,7.39
2022-11-15T01:43:29.869Z,6.76
2022-11-15T01:46:36.917Z,6.96
2022-11-15T01:49:23.713Z,7.19
2022-11-15T01:52:15.374Z,7.39
2022-11-15T01:55:07.332Z,7.31
2022-11-15T01:57:58.411Z,7.34
2022-11-15T02:00:44.394Z,7.32
2022-11-15T02:03:39.221Z,7.13
2022-11-15T02:06:25.755Z,7.11
2022-11-15T02:09:12.644Z,7.13
2022-11-15T02:12:00.594Z,6.96
2022-11-15T02:14:53.008Z,6.91
2022-11-15T02:18:19.212Z,7.36
2022-11-15T02:21:16.984Z,7.17
2022-11-15T02:24:28.742Z,7.27
2022-11-15T02:27:45.164Z,7.15
2022-11-15T02:30:48.974Z,7.21
2022-11-15T02:33:53.237Z,7.19
2022-11-15T02:37:01.740Z,7.09
2022-11-15T02:39:58.796Z,7.09
2022-11-15T02:43:12.828Z,7.06
2022-11-15T02:46:45.517Z,7.13
2022-11-15T02:49:35.771Z,7.10
2022-11-15T02:52:24.368Z,7.32
2022-11-15T02:55:40.201Z,7.19
2022-11-15T02:58:36.716Z,7.21
2022-11-15T03:01:22.649Z,7.23
2022-11-15T03:04:14.341Z,7.37
2022-11-15T03:07:08.837Z,7.46
2022-11-15T03:10:06.785Z,7.37
2022-11-15T03:12:56.540Z,7.32
2022-11-15T03:16:06.393Z,7.37
2022-11-15T03:18:57.847Z,7.48
2022-11-15T03:21:45.195Z,7.58
2022-11-15T03:24:34.678Z,7.33
2022-11-15T03:27:24.572Z,7.06
2022-11-15T03:30:12.272Z,6.87
2022-11-15T03:33:01.364Z,7.06
2022-11-15T03:35:49.587Z,7.27
2022-11-15T03:38:36.661Z,6.95
2022-11-15T03:41:29.234Z,6.86
2022-11-15T03:44:21.195Z,7.15
2022-11-15T03:47:12.530Z,7.09
2022-11-15T03:50:03.132Z,6.81
2022-11-15T03:52:50.821Z,6.45
2022-11-15T03:55:36.811Z,6.61
2022-11-15T03:58:22.481Z,6.86
2022-11-15T04:01:08.501Z,7.13
2022-11-15T04:03:54.374Z,6.68
2022-11-15T04:06:40.107Z,6.06
2022-11-15T04:09:25.773Z,6.10
2022-11-15T04:12:11.472Z,6.12
2022-11-15T04:15:09.444Z,6.37
2022-11-15T04:17:57.807Z,6.62
2022-11-15T04:21:01.886Z,6.71
2022-11-15T04:24:06.441Z,6.94
2022-11-15T04:26:52.843Z,6.68
2022-11-15T04:29:39.036Z,6.54
2022-11-15T04:32:25.203Z,6.61
2022-11-15T04:35:11.048Z,6.62
2022-11-15T04:37:57.552Z,6.79
2022-11-15T04:40:43.281Z,6.82
2022-11-15T04:43:29.628Z,6.69
2022-11-15T04:46:15.624Z,6.62
2022-11-15T04:49:01.330Z,6.71
2022-11-15T04:51:47.263Z,6.79
2022-11-15T04:54:33.265Z,6.59
2022-11-15T04:57:19.123Z,6.55
2022-11-15T05:00:07.040Z,6.38
2022-11-15T05:03:11.901Z,6.58
2022-11-15T05:05:59.208Z,6.55
2022-11-15T05:08:45.347Z,6.47
2022-11-15T05:11:31.599Z,6.45
2022-11-15T05:14:17.870Z,6.26
2022-11-15T05:17:03.950Z,5.85
2022-11-15T05:19:49.881Z,5.73
2022-11-15T05:22:35.555Z,5.78
2022-11-15T05:25:21.492Z,5.97
2022-11-15T05:28:07.310Z,6.12
2022-11-15T05:30:53.096Z,5.93
2022-11-15T05:33:42.337Z,5.92
2022-11-15T05:36:30.677Z,5.69
2022-11-15T05:39:17.002Z,5.69
2022-11-15T05:42:17.097Z,5.22
2022-11-15T05:45:06.756Z,5.56
2022-11-15T05:47:54.788Z,5.36
2022-11-15T05:50:46.614Z,5.58
2022-11-15T05:53:40.968Z,6.12
2022-11-15T05:56:46.357Z,5.40
2022-11-15T05:59:34.212Z,5.43
2022-11-15T06:02:20.181Z,5.31
2022-11-15T06:05:06.411Z,5.25
2022-11-15T06:07:52.498Z,5.55
2022-11-15T06:10:38.201Z,5.74
2022-11-15T06:13:24.385Z,5.68
2022-11-15T06:16:10.259Z,5.81
2022-11-15T06:18:56.110Z,5.95
2022-11-15T06:21:42.055Z,6.03
2022-11-15T06:24:27.869Z,6.05
2022-11-15T06:27:13.756Z,6.20
2022-11-15T06:29:59.577Z,6.54
2022-11-15T06:32:45.717Z,6.51
2022-11-15T06:35:34.801Z,6.43
2022-11-15T06:38:20.696Z,6.76
2022-11-15T06:41:08.130Z,6.86
2022-11-15T06:43:53.914Z,6.68
2022-11-15T06:46:39.727Z,6.80
2022-11-15T06:49:25.600Z,6.58
2022-11-15T06:52:11.730Z,6.65
2022-11-15T06:54:57.530Z,6.76
2022-11-15T06:57:51.147Z,6.90
2022-11-15T07:00:37.216Z,6.96
2022-11-15T07:03:23.401Z,6.95
2022-11-15T07:06:10.661Z,6.83
2022-11-15T07:08:56.685Z,7.35
2022-11-15T07:11:42.501Z,7.22
2022-11-15T07:14:28.238Z,6.84
2022-11-15T07:17:14.183Z,7.08
2022-11-15T07:19:59.958Z,7.08
2022-11-15T07:22:46.429Z,7.22
2022-11-15T07:25:32.757Z,7.21
2022-11-15T07:28:18.847Z,7.39
2022-11-15T07:31:07.051Z,7.40
2022-11-15T07:33:53.230Z,6.67
2022-11-15T07:36:39.120Z,6.97
2022-11-15T07:39:24.975Z,7.43
2022-11-15T07:42:29.937Z,7.65
2022-11-15T07:45:15.936Z,7.54
2022-11-15T07:48:01.609Z,7.79
2022-11-15T07:50:47.403Z,7.59
2022-11-15T07:53:34.179Z,7.74
2022-11-15T07:56:21.728Z,7.85
2022-11-15T07:59:07.643Z,7.56
2022-11-15T08:01:53.447Z,7.45
2022-11-15T08:04:39.693Z,7.64
2022-11-15T08:07:25.537Z,7.71
2022-11-15T08:10:12.974Z,7.86
2022-11-15T08:13:00.767Z,7.89
2022-11-15T08:15:46.633Z,8.02
2022-11-15T08:18:32.546Z,8.07
2022-11-15T08:21:20.097Z,8.51
2022-11-15T08:24:06.582Z,8.13
2022-11-15T08:26:52.378Z,7.90
2022-11-15T08:29:38.230Z,7.72
2022-11-15T08:32:25.258Z,8.13
2022-11-15T08:35:11.059Z,8.36
2022-11-15T08:37:57.218Z,8.79
2022-11-15T08:40:43.160Z,8.50
2022-11-15T08:43:29.574Z,8.24
2022-11-15T08:46:16.361Z,9.11
2022-11-15T08:49:02.493Z,8.78
2022-11-15T08:51:48.429Z,9.30
2022-11-15T08:54:34.344Z,8.35
2022-11-15T08:57:19.958Z,8.11
2022-11-15T09:00:06.258Z,8.73
2022-11-15T09:02:51.983Z,9.20
2022-11-15T09:05:38.887Z,9.28
2022-11-15T09:08:46.454Z,9.30
2022-11-15T09:11:32.079Z,9.58
2022-11-15T09:14:18.228Z,9.29
2022-11-15T09:17:04.922Z,9.27
2022-11-15T09:19:50.950Z,9.69
2022-11-15T09:22:37.552Z,9.80
2022-11-15T09:25:23.724Z,9.91
2022-11-15T09:28:10.031Z,9.24
2022-11-15T09:31:00.849Z,9.04
2022-11-15T09:33:47.076Z,8.90
2022-11-15T09:36:33.375Z,9.03
2022-11-15T09:39:19.224Z,9.52
2022-11-15T09:42:07.012Z,9.28
2022-11-15T09:45:12.105Z,9.51
2022-11-15T09:48:13.792Z,9.74
2022-11-15T09:51:05.985Z,9.66
2022-11-15T09:54:30.358Z,9.72
2022-11-15T09:56:37.691Z,9.73
2022-11-15T09:59:07.851Z,9.93
2022-11-15T10:01:45.933Z,9.60
2022-11-15T10:04:14.971Z,9.27
2022-11-15T10:07:07.725Z,9.21
2022-11-15T10:10:03.165Z,9.47
2022-11-15T10:12:32.319Z,9.37
2022-11-15T10:15:15.272Z,9.75
2022-11-15T10:17:42.646Z,9.92
2022-11-15T10:20:16.436Z,9.96
2022-11-15T10:22:52.463Z,9.85
2022-11-15T10:25:28.987Z,9.63
2022-11-15T10:28:02.383Z,9.56
2022-11-15T10:30:51.792Z,9.28
2022-11-15T10:33:34.887Z,9.69
2022-11-15T10:36:09.868Z,9.62
2022-11-15T10:38:49.493Z,10.09
2022-11-15T10:41:20.004Z,9.64
2022-11-15T10:44:02.651Z,9.96
2022-11-15T10:46:46.115Z,10.31
2022-11-15T10:49:15.334Z,10.32
2022-11-15T10:52:17.914Z,10.11
2022-11-15T10:54:49.795Z,10.14
2022-11-15T10:57:20.197Z,9.24
2022-11-15T10:59:50.720Z,9.84
2022-11-15T11:02:38.307Z,9.51
2022-11-15T11:05:26.853Z,9.89
2022-11-15T11:08:23.129Z,10.25
2022-11-15T11:11:03.423Z,10.51
2022-11-15T11:13:35.567Z,10.74
2022-11-15T11:16:15.184Z,10.80
2022-11-15T11:19:10.431Z,10.94
2022-11-15T11:21:40.109Z,10.77
2022-11-15T11:24:15.924Z,10.42
2022-11-15T11:26:47.147Z,10.78
2022-11-15T11:29:32.900Z,10.85
2022-11-15T11:32:17.868Z,10.49
2022-11-15T11:34:51.852Z,10.80
2022-11-15T11:37:28.653Z,11.01
2022-11-15T11:40:21.909Z,10.57
2022-11-15T11:42:59.942Z,10.59
2022-11-15T11:46:08.883Z,10.66
2022-11-15T11:48:51.279Z,10.59
2022-11-15T11:51:29.720Z,10.55
2022-11-15T11:54:22.048Z,10.73
2022-11-15T11:56:51.128Z,10.67
2022-11-15T11:59:29.716Z,10.72
2022-11-15T12:01:59.929Z,10.67
2022-11-15T12:04:41.157Z,10.58
2022-11-15T12:07:20.334Z,10.64
2022-11-15T12:09:52.802Z,10.83
2022-11-15T12:12:31.123Z,11.05
2022-11-15T12:15:20.506Z,10.94
2022-11-15T12:17:49.297Z,11.03
2022-11-15T12:20:23.899Z,11.00
2022-11-15T12:23:04.700Z,11.23
2022-11-15T12:25:58.559Z,11.13
2022-11-15T12:28:33.506Z,11.08
2022-11-15T12:31:17.408Z,11.26
2022-11-15T12:33:47.735Z,11.27
2022-11-15T12:36:24.004Z,11.10
2022-11-15T12:39:01.548Z,11.17
2022-11-15T12:41:31.264Z,11.27
2022-11-15T12:44:00.215Z,11.03
2022-11-15T12:46:30.360Z,11.00
2022-11-15T12:49:22.279Z,10.97
2022-11-15T12:51:49.677Z,10.76
2022-11-15T12:54:23.159Z,10.45
2022-11-15T12:57:08.398Z,11.01
2022-11-15T13:00:05.222Z,10.93
2022-11-15T13:02:36.816Z,11.08
2022-11-15T13:05:16.528Z,11.10
2022-11-15T13:07:43.918Z,11.23
2022-11-15T13:10:11.418Z,10.86
2022-11-15T13:12:41.545Z,10.69
2022-11-15T13:15:15.042Z,10.67
2022-11-15T13:17:48.863Z,10.70
2022-11-15T13:20:16.261Z,10.99
2022-11-15T13:22:52.411Z,11.24
2022-11-15T13:26:02.203Z,11.29
2022-11-15T13:28:47.190Z,11.48
2022-11-15T13:31:26.878Z,11.58
2022-11-15T13:33:58.248Z,11.21
2022-11-15T13:36:34.128Z,11.19
2022-11-15T13:39:07.713Z,11.17
2022-11-15T13:41:37.338Z,11.23
2022-11-15T13:44:05.382Z,10.92
2022-11-15T13:46:34.120Z,11.35
2022-11-15T13:49:28.377Z,11.76
2022-11-15T13:51:55.998Z,11.89
2022-11-15T13:54:25.977Z,11.98
2022-11-15T13:57:21.953Z,11.79
2022-11-15T13:59:55.785Z,11.85
2022-11-15T14:02:35.228Z,11.72
2022-11-15T14:05:17.228Z,11.61
2022-11-15T14:08:03.581Z,11.71
2022-11-15T14:10:37.233Z,11.63
2022-11-15T14:13:11.401Z,11.59
2022-11-15T14:15:40.895Z,11.22
2022-11-15T14:19:00.580Z,11.31
2022-11-15T14:21:28.131Z,11.31
2022-11-15T14:24:18.979Z,11.23
2022-11-15T14:26:46.824Z,10.87
2022-11-15T14:29:27.523Z,10.93
2022-11-15T14:32:07.905Z,11.11
2022-11-15T14:34:35.337Z,11.22
2022-11-15T14:37:02.718Z,11.16
2022-11-15T14:39:30.155Z,10.98
2022-11-15T14:41:57.519Z,10.87
2022-11-15T14:44:25.051Z,10.64
2022-11-15T14:46:52.552Z,10.68
2022-11-15T14:49:20.017Z,10.93
2022-11-15T14:51:47.528Z,10.85
2022-11-15T14:54:15.061Z,11.06
2022-11-15T14:56:43.656Z,11.14
2022-11-15T14:59:11.073Z,11.13
2022-11-15T15:01:38.601Z,11.06
2022-11-15T15:04:06.107Z,10.69
2022-11-15T15:06:33.587Z,11.08
2022-11-15T15:09:01.012Z,11.37
2022-11-15T15:11:30.978Z,11.45
2022-11-15T15:14:01.971Z,11.47
2022-11-15T15:16:29.416Z,11.37
2022-11-15T15:18:56.918Z,11.57
2022-11-15T15:21:28.889Z,11.61
2022-11-15T15:23:59.974Z,11.55
2022-11-15T15:26:27.559Z,11.17
2022-11-15T15:28:55.172Z,11.23
2022-11-15T15:31:22.751Z,11.16
2022-11-15T15:33:50.237Z,10.86
2022-11-15T15:36:19.727Z,10.88
2022-11-15T15:38:47.871Z,10.86
2022-11-15T15:41:16.903Z,10.92
2022-11-15T15:43:48.863Z,10.96
2022-11-15T15:46:18.306Z,10.92
2022-11-15T15:48:46.806Z,10.98
2022-11-15T15:51:20.193Z,11.03
2022-11-15T15:53:51.416Z,11.02
2022-11-15T15:56:19.055Z,11.03
2022-11-15T15:58:56.522Z,10.94
2022-11-15T16:01:26.627Z,10.87
2022-11-15T16:03:59.341Z,10.99
2022-11-15T16:06:41.533Z,10.89
2022-11-15T16:09:54.719Z,10.87
2022-11-15T16:12:30.695Z,10.74
2022-11-15T16:14:58.962Z,10.79
2022-11-15T16:17:33.910Z,10.82
2022-11-15T16:20:17.751Z,10.92
2022-11-15T16:23:08.764Z,11.02
2022-11-15T16:25:55.748Z,11.03
2022-11-15T16:28:31.361Z,10.83
2022-11-15T16:31:10.115Z,10.84
2022-11-15T16:33:41.222Z,10.84
2022-11-15T16:36:36.023Z,10.94
2022-11-15T16:39:06.696Z,11.08
2022-11-15T16:41:34.170Z,11.04
2022-11-15T16:44:03.001Z,11.00
2022-11-15T16:46:30.665Z,11.00
2022-11-15T16:48:59.372Z,11.15
2022-11-15T16:51:30.058Z,11.18
2022-11-15T16:53:57.949Z,11.15
2022-11-15T16:56:30.746Z,11.17
2022-11-15T16:59:02.015Z,11.03
2022-11-15T17:01:46.977Z,11.14
2022-11-15T17:04:16.493Z,11.01
2022-11-15T17:06:47.411Z,10.69
2022-11-15T17:09:25.528Z,10.93
2022-11-15T17:12:01.795Z,11.06
2022-11-15T17:14:29.972Z,11.06
2022-11-15T17:17:09.991Z,11.01
2022-11-15T17:19:37.784Z,10.99
2022-11-15T17:22:19.664Z,11.18
2022-11-15T17:24:53.506Z,11.20
2022-11-15T17:27:29.360Z,10.91
2022-11-15T17:29:57.082Z,11.15
2022-11-15T17:33:07.224Z,11.34
2022-11-15T17:36:00.812Z,11.13
2022-11-15T17:38:32.844Z,11.07
2022-11-15T17:41:16.321Z,10.82
2022-11-15T17:43:44.689Z,10.91
2022-11-15T17:46:20.516Z,10.93
2022-11-15T17:49:01.075Z,10.74
2022-11-15T17:51:44.983Z,10.87
2022-11-15T17:54:31.638Z,10.94
2022-11-15T17:57:04.112Z,11.07
2022-11-15T17:59:41.788Z,11.24
2022-11-15T18:02:21.787Z,11.03
2022-11-15T18:05:00.902Z,10.86
2022-11-15T18:07:59.071Z,10.46
2022-11-15T18:10:33.324Z,10.50
2022-11-15T18:13:01.191Z,10.57
2022-11-15T18:15:34.900Z,10.85
2022-11-15T18:18:05.193Z,11.02
2022-11-15T18:21:04.882Z,11.08
2022-11-15T18:23:45.913Z,11.05
2022-11-15T18:26:15.531Z,11.10
2022-11-15T18:28:45.662Z,11.08
2022-11-15T18:31:14.958Z,11.23
2022-11-15T18:33:43.258Z,11.07
2022-11-15T18:36:13.545Z,11.19
2022-11-15T18:38:41.417Z,11.11
2022-11-15T18:41:18.053Z,11.16
2022-11-15T18:43:45.586Z,11.25
2022-11-15T18:46:15.724Z,11.26
2022-11-15T18:48:44.944Z,11.33
2022-11-15T18:51:15.110Z,11.40
2022-11-15T18:53:44.023Z,11.21
2022-11-15T18:56:14.288Z,10.99
2022-11-15T18:58:44.509Z,11.26
2022-11-15T19:01:17.079Z,11.22
2022-11-15T19:03:46.823Z,11.23
2022-11-15T19:06:16.596Z,11.13
2022-11-15T19:08:46.186Z,10.98
2022-11-15T19:11:16.903Z,10.76
2022-11-15T19:13:48.561Z,10.83
2022-11-15T19:16:18.633Z,10.74
2022-11-15T19:18:46.207Z,10.98
2022-11-15T19:21:16.177Z,11.04
2022-11-15T19:23:43.886Z,11.22
2022-11-15T19:26:14.208Z,11.30
2022-11-15T19:28:43.398Z,11.20
2022-11-15T19:31:15.665Z,11.11
2022-11-15T19:33:45.173Z,11.08
2022-11-15T19:36:16.138Z,10.99
2022-11-15T19:38:44.137Z,11.07
2022-11-15T19:41:14.725Z,11.08
2022-11-15T19:43:42.974Z,11.15
2022-11-15T19:46:12.498Z,10.99
2022-11-15T19:48:40.328Z,11.00
2022-11-15T19:51:14.442Z,10.99
2022-11-15T19:53:42.811Z,11.10
2022-11-15T19:56:13.056Z,11.08
2022-11-15T19:58:41.509Z,10.88
2022-11-15T20:01:29.217Z,11.02
2022-11-15T20:04:00.114Z,10.85
2022-11-15T20:06:33.599Z,10.71
2022-11-15T20:09:01.470Z,10.74
2022-11-15T20:11:29.487Z,10.67
2022-11-15T20:14:02.342Z,11.01
2022-11-15T20:16:30.372Z,10.91
2022-11-15T20:18:59.758Z,10.96
2022-11-15T20:21:28.427Z,11.04
2022-11-15T20:23:56.641Z,10.90
2022-11-15T20:26:24.683Z,10.88
2022-11-15T20:28:53.247Z,10.89
2022-11-15T20:31:21.883Z,10.78
2022-11-15T20:33:49.726Z,10.64
2022-11-15T20:36:18.082Z,10.74
2022-11-15T20:38:51.104Z,10.92
2022-11-15T20:41:19.413Z,11.14
2022-11-15T20:43:48.231Z,11.21
2022-11-15T20:46:16.924Z,11.18
2022-11-15T20:48:45.789Z,10.86
2022-11-15T20:51:17.167Z,10.92
2022-11-15T20:53:47.785Z,11.03
2022-11-15T20:56:22.529Z,11.06
2022-11-15T20:58:51.653Z,11.14
2022-11-15T21:01:25.726Z,11.16
2022-11-15T21:03:57.958Z,11.06
2022-11-15T21:06:27.851Z,11.17
2022-11-15T21:09:15.763Z,11.25
2022-11-15T21:12:04.254Z,11.40
2022-11-15T21:14:33.204Z,11.21
2022-11-15T21:17:00.993Z,11.14
2022-11-15T21:19:35.671Z,11.38
2022-11-15T21:22:06.415Z,11.04
2022-11-15T21:24:34.855Z,11.02
2022-11-15T21:27:02.786Z,11.16
2022-11-15T21:29:37.920Z,11.14
2022-11-15T21:32:07.823Z,11.03
2022-11-15T21:34:36.254Z,11.22
2022-11-15T21:37:05.145Z,11.23
2022-11-15T21:39:33.097Z,11.07
2022-11-15T21:42:00.780Z,11.05
2022-11-15T21:44:28.728Z,11.01
2022-11-15T21:46:56.389Z,11.07
2022-11-15T21:49:24.241Z,10.83
2022-11-15T21:51:51.815Z,10.94
2022-11-15T21:54:19.375Z,11.03
2022-11-15T21:56:46.923Z,11.00
2022-11-15T21:59:15.671Z,10.85
2022-11-15T22:02:05.707Z,11.02
2022-11-15T22:04:35.970Z,11.38
2022-11-15T22:07:03.805Z,11.39
2022-11-15T22:09:31.549Z,11.48
2022-11-15T22:11:59.148Z,11.49
2022-11-15T22:14:27.550Z,11.42
2022-11-15T22:16:57.583Z,11.30
2022-11-15T22:19:25.298Z,11.35
2022-11-15T22:21:52.979Z,11.42
2022-11-15T22:24:21.669Z,11.46
2022-11-15T22:26:49.311Z,11.21
2022-11-15T22:29:16.922Z,11.50
2022-11-15T22:31:44.628Z,11.29
2022-11-15T22:34:12.324Z,11.27
2022-11-15T22:37:13.182Z,11.10
2022-11-15T22:39:35.881Z,11.07
2022-11-15T22:42:03.576Z,11.07
2022-11-15T22:44:31.234Z,10.87
2022-11-15T22:46:59.085Z,10.95
2022-11-15T22:49:26.827Z,10.89
2022-11-15T22:51:54.695Z,11.14
2022-11-15T22:54:22.486Z,10.84
2022-11-15T22:56:50.284Z,10.70
2022-11-15T22:59:17.915Z,11.07
2022-11-15T23:01:45.791Z,11.29
2022-11-15T23:04:13.459Z,11.28
2022-11-15T23:06:41.344Z,11.38
2022-11-15T23:09:10.105Z,11.38
2022-11-15T23:11:56.440Z,11.46
2022-11-15T23:14:24.405Z,11.43
2022-11-15T23:16:52.079Z,11.41
2022-11-15T23:19:19.769Z,11.26
2022-11-15T23:22:07.104Z,11.40
2022-11-15T23:24:34.973Z,11.47
2022-11-15T23:27:07.282Z,11.33
2022-11-15T23:29:55.287Z,11.34
2022-11-15T23:32:41.776Z,11.38
2022-11-15T23:35:09.791Z,11.38
2022-11-15T23:37:37.432Z,11.16
2022-11-15T23:40:05.727Z,11.22
2022-11-15T23:42:33.451Z,11.15
2022-11-15T23:45:01.115Z,11.25
2022-11-15T23:47:31.058Z,11.36
2022-11-15T23:49:58.704Z,11.29
2022-11-15T23:52:27.412Z,11.17
2022-11-15T23:54:55.377Z,11.02
2022-11-15T23:57:23.345Z,10.76
2022-11-15T23:59:51.192Z,11.00
